Karteria — 9HUU9 — position and weather

sailwx.info

Track history (hours):
 
Tides and Currents Weather Stations Pressure Air Temp Water Temp Dewpoint Dewpoint Depression Visibility Wind Speed Wind Dir Waves Ship Positions

Karteria

Last reported at 2017-Sep-14 06:07 UTC. Time now 2017-Sep-22 02:50 UTC.
Position N 03°50' W 002°37'.

Length 190 m; draft 8.3 m.

Type: Ship. MMSI: 249562000.

Date/timePositionNaut miles runAvg speedWind from/ knotsBaromVisibWave heightAir tempDewpointWater temp
2017-Sep-14 06:07N 03°50' W 002°37'211.8
2017-Sep-14 05:56N 03°50' W 002°39'611.6
2017-Sep-14 05:27N 03°50' W 002°45'2911.4
2017-Sep-14 02:55N 03°51' W 003°14'811.4
2017-Sep-14 02:13N 03°51' W 003°22'611.5
2017-Sep-14 01:41N 03°51' W 003°28'211.6
2017-Sep-14 01:29N 03°51' W 003°31'611.4
2017-Sep-14 01:00N 03°51' W 003°36'611.3
2017-Sep-14 00:28N 03°51' W 003°42'611.4
2017-Sep-13 23:57N 03°51' W 003°48'1411.6
2017-Sep-13 22:46N 03°51' W 004°02'511.7
2017-Sep-13 22:20N 03°51' W 004°07'411.6
2017-Sep-13 21:57N 03°52' W 004°11'  
2017-Sep-06 17:35N 27°29' W 013°57'111.1
2017-Sep-06 17:27N 27°30' W 013°56'1211.0
2017-Sep-06 16:20N 27°40' W 013°48'411.2
2017-Sep-06 15:59N 27°43' W 013°45'511.4
2017-Sep-06 15:30N 27°47' W 013°41'611.4
2017-Sep-06 14:58N 27°52' W 013°37'612.2
2017-Sep-06 14:30N 27°57' W 013°33'814.4
2017-Sep-06 13:59N 28°03' W 013°28'613.2
2017-Sep-06 13:30N 28°08' W 013°23'611.2
2017-Sep-06 13:00N 28°12' W 013°20'611.6
2017-Sep-06 12:28N 28°17' W 013°16'1011.7
2017-Sep-06 11:39N 28°25' W 013°09'211.6
2017-Sep-06 11:26N 28°27' W 013°08'611.2
2017-Sep-06 10:52N 28°32' W 013°04'411.3
2017-Sep-06 10:30N 28°35' W 013°00'611.4
2017-Sep-06 10:00N 28°40' W 012°56'611.4
2017-Sep-06 09:30N 28°44' W 012°52'611.6
2017-Sep-06 09:00N 28°49' W 012°49'1111.5
2017-Sep-06 08:05N 28°58' W 012°41'1311.6
2017-Sep-06 06:57N 29°08' W 012°32'511.7
2017-Sep-06 06:29N 29°12' W 012°28'611.8
2017-Sep-06 06:00N 29°17' W 012°25'611.7
2017-Sep-06 05:30N 29°22' W 012°21'911.5
2017-Sep-06 04:43N 29°29' W 012°14'411.7
2017-Sep-06 04:23N 29°32' W 012°12'411.7
2017-Sep-06 04:00N 29°36' W 012°09'911.4
2017-Sep-06 03:14N 29°43' W 012°03'711.7
2017-Sep-06 02:36N 29°49' W 011°58'111.8
2017-Sep-06 02:28N 29°50' W 011°57'711.7
2017-Sep-06 01:54N 29°55' W 011°52'1011.9
2017-Sep-06 01:02N 30°04' W 011°45'111.6
2017-Sep-06 00:54N 30°05' W 011°44'2511.7
2017-Sep-05 22:46N 30°24' W 011°26'711.5
2017-Sep-05 22:07N 30°30' W 011°21'111.5
2017-Sep-05 22:00N 30°31' W 011°20'611.5
2017-Sep-05 21:30N 30°36' W 011°16'611.5
2017-Sep-05 20:59N 30°41' W 011°12'511.4
2017-Sep-05 20:30N 30°45' W 011°08'611.6
2017-Sep-05 20:00N 30°50' W 011°04'611.3
2017-Sep-05 19:30N 30°54' W 011°00'611.1
2017-Sep-05 19:00N 30°59' W 010°57'611.4
2017-Sep-05 18:30N 31°03' W 010°53'611.6
2017-Sep-05 18:00N 31°08' W 010°48'611.4
2017-Sep-05 17:30N 31°12' W 010°44'611.8
2017-Sep-05 17:00N 31°17' W 010°40'611.7
2017-Sep-05 16:30N 31°22' W 010°36'611.5
2017-Sep-05 16:00N 31°27' W 010°32'1711.8
2017-Sep-05 14:32N 31°41' W 010°20'1011.5
2017-Sep-05 13:42N 31°48' W 010°13'511.7
2017-Sep-05 13:15N 31°52' W 010°10'3511.8
2017-Sep-05 10:17N 32°20' W 009°45'311.4
2017-Sep-05 10:00N 32°23' W 009°43'1111.4
2017-Sep-05 09:02N 32°32' W 009°35'2711.5
2017-Sep-05 06:42N 32°53' W 009°15'4411.6
2017-Sep-05 02:57N 33°27' W 008°43'511.5
2017-Sep-05 02:30N 33°31' W 008°39'3711.7
2017-Sep-04 23:21N 33°59' W 008°11'1811.7
2017-Sep-04 21:48N 34°13' W 007°56'611.7
2017-Sep-04 21:17N 34°18' W 007°52'311.6
2017-Sep-04 21:00N 34°20' W 007°49'1211.5
2017-Sep-04 20:00N 34°29' W 007°40'611.6
2017-Sep-04 19:30N 34°34' W 007°36'611.5
2017-Sep-04 18:59N 34°38' W 007°31'611.5
2017-Sep-04 18:29N 34°43' W 007°27'611.7
2017-Sep-04 18:00N 34°48' W 007°23'611.7
2017-Sep-04 17:30N 34°52' W 007°18'2011.6
2017-Sep-04 15:46N 35°07' W 007°03'311.4
2017-Sep-04 15:30N 35°10' W 007°01'611.4
2017-Sep-04 15:00N 35°15' W 006°56'4911.7
2017-Sep-04 10:49N 35°53' W 006°19'2811.0
2017-Sep-04 08:18N 35°57' W 005°45'512.1
2017-Sep-04 07:51N 35°57' W 005°39'411.0
2017-Sep-04 07:30N 35°58' W 005°34'510.4
2017-Sep-04 07:00N 35°60' W 005°28'510.4
2017-Sep-04 06:30N 36°01' W 005°22'  
Track history (hours):
 
Tides and Currents Weather Stations Pressure Air Temp Water Temp Dewpoint Dewpoint Depression Visibility Wind Speed Wind Dir Waves Ship Positions

Karteria

Last reported at 2017-Sep-14 06:07 UTC. Time now 2017-Sep-22 02:50 UTC.
Position N 03°50' W 002°37'.

Length 190 m; draft 8.3 m.

Type: Ship. MMSI: 249562000.

Date/timePositionNaut miles runAvg speedWind from/ knotsBaromVisibWave heightAir tempDewpointWater temp
2017-Sep-14 06:07N 03°50' W 002°37'211.8
2017-Sep-14 05:56N 03°50' W 002°39'611.6
2017-Sep-14 05:27N 03°50' W 002°45'2911.4
2017-Sep-14 02:55N 03°51' W 003°14'811.4
2017-Sep-14 02:13N 03°51' W 003°22'611.5
2017-Sep-14 01:41N 03°51' W 003°28'211.6
2017-Sep-14 01:29N 03°51' W 003°31'611.4
2017-Sep-14 01:00N 03°51' W 003°36'611.3
2017-Sep-14 00:28N 03°51' W 003°42'611.4
2017-Sep-13 23:57N 03°51' W 003°48'1411.6
2017-Sep-13 22:46N 03°51' W 004°02'511.7
2017-Sep-13 22:20N 03°51' W 004°07'411.6
2017-Sep-13 21:57N 03°52' W 004°11'  
2017-Sep-06 17:35N 27°29' W 013°57'111.1
2017-Sep-06 17:27N 27°30' W 013°56'1211.0
2017-Sep-06 16:20N 27°40' W 013°48'411.2
2017-Sep-06 15:59N 27°43' W 013°45'511.4
2017-Sep-06 15:30N 27°47' W 013°41'611.4
2017-Sep-06 14:58N 27°52' W 013°37'612.2
2017-Sep-06 14:30N 27°57' W 013°33'814.4
2017-Sep-06 13:59N 28°03' W 013°28'613.2
2017-Sep-06 13:30N 28°08' W 013°23'611.2
2017-Sep-06 13:00N 28°12' W 013°20'611.6
2017-Sep-06 12:28N 28°17' W 013°16'1011.7
2017-Sep-06 11:39N 28°25' W 013°09'211.6
2017-Sep-06 11:26N 28°27' W 013°08'611.2
2017-Sep-06 10:52N 28°32' W 013°04'411.3
2017-Sep-06 10:30N 28°35' W 013°00'611.4
2017-Sep-06 10:00N 28°40' W 012°56'611.4
2017-Sep-06 09:30N 28°44' W 012°52'611.6
2017-Sep-06 09:00N 28°49' W 012°49'1111.5
2017-Sep-06 08:05N 28°58' W 012°41'1311.6
2017-Sep-06 06:57N 29°08' W 012°32'511.7
2017-Sep-06 06:29N 29°12' W 012°28'611.8
2017-Sep-06 06:00N 29°17' W 012°25'611.7
2017-Sep-06 05:30N 29°22' W 012°21'911.5
2017-Sep-06 04:43N 29°29' W 012°14'411.7
2017-Sep-06 04:23N 29°32' W 012°12'411.7
2017-Sep-06 04:00N 29°36' W 012°09'911.4
2017-Sep-06 03:14N 29°43' W 012°03'711.7
2017-Sep-06 02:36N 29°49' W 011°58'111.8
2017-Sep-06 02:28N 29°50' W 011°57'711.7
2017-Sep-06 01:54N 29°55' W 011°52'1011.9
2017-Sep-06 01:02N 30°04' W 011°45'111.6
2017-Sep-06 00:54N 30°05' W 011°44'2511.7
2017-Sep-05 22:46N 30°24' W 011°26'711.5
2017-Sep-05 22:07N 30°30' W 011°21'111.5
2017-Sep-05 22:00N 30°31' W 011°20'611.5
2017-Sep-05 21:30N 30°36' W 011°16'611.5
2017-Sep-05 20:59N 30°41' W 011°12'511.4
2017-Sep-05 20:30N 30°45' W 011°08'611.6
2017-Sep-05 20:00N 30°50' W 011°04'611.3
2017-Sep-05 19:30N 30°54' W 011°00'611.1
2017-Sep-05 19:00N 30°59' W 010°57'611.4
2017-Sep-05 18:30N 31°03' W 010°53'611.6
2017-Sep-05 18:00N 31°08' W 010°48'611.4
2017-Sep-05 17:30N 31°12' W 010°44'611.8
2017-Sep-05 17:00N 31°17' W 010°40'611.7
2017-Sep-05 16:30N 31°22' W 010°36'611.5
2017-Sep-05 16:00N 31°27' W 010°32'1711.8
2017-Sep-05 14:32N 31°41' W 010°20'1011.5
2017-Sep-05 13:42N 31°48' W 010°13'511.7
2017-Sep-05 13:15N 31°52' W 010°10'3511.8
2017-Sep-05 10:17N 32°20' W 009°45'311.4
2017-Sep-05 10:00N 32°23' W 009°43'1111.4
2017-Sep-05 09:02N 32°32' W 009°35'2711.5
2017-Sep-05 06:42N 32°53' W 009°15'4411.6
2017-Sep-05 02:57N 33°27' W 008°43'511.5
2017-Sep-05 02:30N 33°31' W 008°39'3711.7
2017-Sep-04 23:21N 33°59' W 008°11'1811.7
2017-Sep-04 21:48N 34°13' W 007°56'611.7
2017-Sep-04 21:17N 34°18' W 007°52'311.6
2017-Sep-04 21:00N 34°20' W 007°49'1211.5
2017-Sep-04 20:00N 34°29' W 007°40'611.6
2017-Sep-04 19:30N 34°34' W 007°36'611.5
2017-Sep-04 18:59N 34°38' W 007°31'611.5
2017-Sep-04 18:29N 34°43' W 007°27'611.7
2017-Sep-04 18:00N 34°48' W 007°23'611.7
2017-Sep-04 17:30N 34°52' W 007°18'2011.6
2017-Sep-04 15:46N 35°07' W 007°03'311.4
2017-Sep-04 15:30N 35°10' W 007°01'611.4
2017-Sep-04 15:00N 35°15' W 006°56'4911.7
2017-Sep-04 10:49N 35°53' W 006°19'2811.0
2017-Sep-04 08:18N 35°57' W 005°45'512.1
2017-Sep-04 07:51N 35°57' W 005°39'411.0
2017-Sep-04 07:30N 35°58' W 005°34'510.4
2017-Sep-04 07:00N 35°60' W 005°28'510.4
2017-Sep-04 06:30N 36°01' W 005°22'  

Dump ship's entire track history